Airport View

Enter AWOS ICAO identifier for current METAR.

ex. KFNL

KVIS 290256Z AUTO 00000KT 10SM CLR 26/14 A2989 RMK AO2 SLP128 T02560144 53004

29 Sep 2020 03:24

Frequency: 119.925

Phone: 559-651-2418

Other Area AWOS: KHJO - KPTV - KNLC - KFAT

TAF KVIS 282329Z 2900/2924 VRB04KT P6SM SKC TEMPO 2914/2918 5SM HZ FU